createdAt,value
2022-12-01T00:28:43.347Z,97.53
2022-12-01T00:57:35.943Z,97.78
2022-12-01T01:26:23.848Z,96.47
2022-12-01T01:55:11.627Z,95.49
2022-12-01T02:24:03.573Z,92.91
2022-12-01T02:52:48.604Z,89.54
2022-12-01T03:21:32.957Z,89.06
2022-12-01T03:50:34.978Z,89.42
2022-12-01T04:19:27.055Z,87.44
2022-12-01T04:48:18.822Z,86
2022-12-01T05:17:01.568Z,86.64
2022-12-01T05:45:44.091Z,86.83
2022-12-01T06:14:34.870Z,87.19
2022-12-01T06:43:20.642Z,87.87
2022-12-01T07:12:12.782Z,89.35
2022-12-01T07:41:06.705Z,88.21
2022-12-01T08:10:02.144Z,86.95
2022-12-01T08:38:54.739Z,86.82
2022-12-01T09:07:43.552Z,86.8
2022-12-01T09:36:40.071Z,86.62
2022-12-01T10:05:35.621Z,86.94
2022-12-01T10:34:31.578Z,85.59
2022-12-01T11:03:28.611Z,86.34
2022-12-01T11:32:06.653Z,86.8
2022-12-01T12:01:02.222Z,85.27
2022-12-01T12:29:36.484Z,85.99
2022-12-01T12:58:34.811Z,85
2022-12-01T13:27:21.936Z,84.86
2022-12-01T13:56:13.802Z,84.95
2022-12-01T14:25:04.714Z,84.58
2022-12-01T14:54:02.623Z,85.43
2022-12-01T15:22:58.700Z,85.96
2022-12-01T15:51:47.133Z,87.34
2022-12-01T16:20:29.927Z,88.22
2022-12-01T16:49:31.516Z,88.18
2022-12-01T17:18:23.741Z,88.6
2022-12-01T17:47:21.744Z,89.33
2022-12-01T18:16:16.928Z,91.46
2022-12-01T18:45:07.580Z,90.17
2022-12-01T19:13:24.681Z,89.13
2022-12-01T19:42:22.291Z,90.27
2022-12-01T20:11:05.776Z,91.16
2022-12-01T20:39:10.638Z,93.76
2022-12-01T21:08:04.124Z,94.13
2022-12-01T21:36:46.549Z,96.16
2022-12-01T22:05:36.132Z,97.57
2022-12-01T22:34:25.745Z,100
2022-12-01T23:03:18.657Z,100
2022-12-01T23:32:03.899Z,100
